createdAt,value
2022-11-18T00:02:05.911Z,34.6
2022-11-18T00:07:43.770Z,34.5
2022-11-18T00:13:05.275Z,34.4
2022-11-18T00:18:43.622Z,34.4
2022-11-18T00:24:25.686Z,34.4
2022-11-18T00:30:02.673Z,34.4
2022-11-18T00:35:38.975Z,34.3
2022-11-18T00:41:02.210Z,34.3
2022-11-18T00:46:39.539Z,34.3
2022-11-18T00:52:01.946Z,34.3
2022-11-18T00:57:39.761Z,34.2
2022-11-18T01:03:03.110Z,34.1
2022-11-18T01:08:24.854Z,34.1
2022-11-18T01:13:47.825Z,34.1
2022-11-18T01:19:25.659Z,34
2022-11-18T01:24:47.675Z,34
2022-11-18T01:30:14.172Z,33.9
2022-11-18T01:36:08.201Z,33.9
2022-11-18T01:41:46.184Z,33.9
2022-11-18T01:47:08.720Z,33.8
2022-11-18T01:52:51.404Z,33.8
2022-11-18T01:57:57.958Z,33.8
2022-11-18T02:03:21.980Z,34
2022-11-18T02:09:00.125Z,34.9
2022-11-18T02:14:38.940Z,35.7
2022-11-18T02:20:16.849Z,36.4
2022-11-18T02:25:53.851Z,36.9
2022-11-18T02:31:15.941Z,37.8
2022-11-18T02:36:37.574Z,38.4
2022-11-18T02:41:59.544Z,39.1
2022-11-18T02:47:37.311Z,39.8
2022-11-18T02:53:15.407Z,40.4
2022-11-18T02:58:52.899Z,41.2
2022-11-18T03:04:30.737Z,42
2022-11-18T03:09:53.337Z,42.6
2022-11-18T03:14:59.837Z,43.3
2022-11-18T03:20:37.847Z,43.9
2022-11-18T03:25:43.919Z,44.8
2022-11-18T03:31:21.606Z,45.4
2022-11-18T03:36:29.008Z,45.6
2022-11-18T03:42:15.835Z,45.6
2022-11-18T03:47:59.366Z,45.8
2022-11-18T03:53:21.740Z,45.8
2022-11-18T03:59:04.967Z,45.8
2022-11-18T04:04:42.046Z,45.7
2022-11-18T04:10:19.774Z,45.7
2022-11-18T04:15:58.254Z,45.7
2022-11-18T04:21:36.078Z,45.6
2022-11-18T04:27:14.129Z,45.6
2022-11-18T04:32:36.392Z,45.6
2022-11-18T04:38:16.600Z,45.6
2022-11-18T04:43:42.766Z,45.5
2022-11-18T04:49:26.024Z,45.4
2022-11-18T04:55:03.830Z,45.4
2022-11-18T05:00:46.477Z,45.3
2022-11-18T05:06:08.846Z,45.3
2022-11-18T05:11:31.845Z,45.3
2022-11-18T05:16:55.308Z,45.2
2022-11-18T05:22:21.775Z,45.1
2022-11-18T05:27:59.220Z,45
2022-11-18T05:33:21.979Z,45
2022-11-18T05:39:02.538Z,44.9
2022-11-18T05:44:24.808Z,44.9
2022-11-18T05:50:04.735Z,44.8
2022-11-18T05:55:43.618Z,44.8
2022-11-18T06:01:21.882Z,44.8
2022-11-18T06:07:00.524Z,44.8
2022-11-18T06:12:39.488Z,44.7
2022-11-18T06:18:20.358Z,44.6
2022-11-18T06:23:58.234Z,44.6
2022-11-18T06:29:42.434Z,44.5
2022-11-18T06:35:20.019Z,44.4
2022-11-18T06:41:04.650Z,44.3
2022-11-18T06:46:28.665Z,44.2
2022-11-18T06:51:51.577Z,44.1
2022-11-18T06:57:34.798Z,43.9
2022-11-18T07:03:13.315Z,43.8
2022-11-18T07:08:50.313Z,43.8
2022-11-18T07:14:33.138Z,43.7
2022-11-18T07:20:10.668Z,43.6
2022-11-18T07:25:48.098Z,43.6
2022-11-18T07:31:26.605Z,43.4
2022-11-18T07:37:08.830Z,43.4
2022-11-18T07:42:46.919Z,43.3
2022-11-18T07:48:31.144Z,43.3
2022-11-18T07:54:11.499Z,43.1
2022-11-18T07:59:49.306Z,43.1
2022-11-18T08:05:34.225Z,43
2022-11-18T08:11:14.287Z,42.9
2022-11-18T08:16:53.961Z,42.9
2022-11-18T08:22:31.623Z,42.8
2022-11-18T08:28:14.451Z,42.7
2022-11-18T08:33:56.222Z,42.6
2022-11-18T08:39:23.078Z,42.6
2022-11-18T08:44:48.559Z,42.5
2022-11-18T08:50:26.481Z,42.4
2022-11-18T08:56:04.852Z,42.4
2022-11-18T09:01:42.133Z,42.3
2022-11-18T09:07:19.365Z,42.3
2022-11-18T09:13:25.146Z,42
2022-11-18T09:20:38.122Z,41.8
2022-11-18T09:26:16.685Z,41.8
2022-11-18T09:32:00.855Z,41.7
2022-11-18T09:37:39.113Z,41.6
2022-11-18T09:43:22.675Z,41.5
2022-11-18T09:49:05.730Z,41.4
2022-11-18T09:55:25.466Z,41.3
2022-11-18T10:01:03.982Z,41.3
2022-11-18T10:06:41.982Z,41.1
2022-11-18T10:12:25.010Z,52.6
2022-11-18T10:18:04.475Z,49.6
2022-11-18T10:24:14.709Z,54.2
2022-11-18T10:29:39.168Z,55.3
2022-11-18T10:35:01.562Z,56.4
2022-11-18T10:41:08.508Z,56.9
2022-11-18T10:46:31.740Z,57.6
2022-11-18T10:52:16.984Z,57.9
2022-11-18T10:57:59.562Z,58.5
2022-11-18T11:03:40.912Z,57.4
2022-11-18T11:09:28.343Z,56.8
2022-11-18T11:15:07.696Z,57
2022-11-18T11:20:46.663Z,56.3
2022-11-18T11:28:16.384Z,55.8
2022-11-18T11:33:55.229Z,54.9
2022-11-18T11:39:38.097Z,54.3
2022-11-18T11:45:15.941Z,53.5
2022-11-18T11:50:39.034Z,51.8
2022-11-18T11:56:09.526Z,49.2
2022-11-18T12:01:48.219Z,47.4
2022-11-18T12:07:32.726Z,46.3
2022-11-18T12:13:11.523Z,45.4
2022-11-18T12:18:54.323Z,44.7
2022-11-18T12:24:33.047Z,44.1
2022-11-18T12:30:11.756Z,43.6
2022-11-18T12:35:49.260Z,43.1
2022-11-18T12:41:27.137Z,42.7
2022-11-18T12:47:05.318Z,42.5
2022-11-18T12:52:28.587Z,42.3
2022-11-18T12:57:54.687Z,42
2022-11-18T13:03:33.617Z,41.8
2022-11-18T13:09:17.802Z,41.5
2022-11-18T13:14:56.665Z,41.3
2022-11-18T13:20:35.554Z,41.1
2022-11-18T13:25:42.032Z,40.9
2022-11-18T13:31:19.543Z,40.7
2022-11-18T13:36:57.500Z,40.4
2022-11-18T13:42:27.105Z,40.3
2022-11-18T13:48:09.092Z,40.1
2022-11-18T13:53:48.030Z,39.9
2022-11-18T13:59:26.884Z,39.7
2022-11-18T14:04:49.414Z,39.5
2022-11-18T14:10:12.746Z,39.4
2022-11-18T14:15:51.810Z,39.2
2022-11-18T14:21:30.187Z,39.1
2022-11-18T14:27:10.237Z,38.8
2022-11-18T14:32:32.455Z,38.6
2022-11-18T14:44:21.423Z,38
2022-11-18T14:49:59.953Z,38
2022-11-18T14:55:46.435Z,37.9
2022-11-18T15:01:29.197Z,37.8
2022-11-18T15:06:38.726Z,37.8
2022-11-18T15:12:16.691Z,37.7
2022-11-18T15:17:24.377Z,37.6
2022-11-18T15:23:02.028Z,37.5
2022-11-18T15:28:40.381Z,37.5
2022-11-18T15:34:23.628Z,37.5
2022-11-18T15:40:01.678Z,37.8
2022-11-18T15:45:21.533Z,37.8
2022-11-18T15:50:59.989Z,37.8
2022-11-18T15:56:29.807Z,37.7
2022-11-18T16:02:12.773Z,37.7
2022-11-18T16:07:20.087Z,37.6
2022-11-18T16:13:00.598Z,37.6
2022-11-18T16:18:22.981Z,37.4
2022-11-18T16:24:02.692Z,37.4
2022-11-18T16:29:46.867Z,37.3
2022-11-18T16:35:32.890Z,37.3
2022-11-18T16:41:10.854Z,37.2
2022-11-18T16:47:01.314Z,37.1
2022-11-18T16:52:24.204Z,37.1
2022-11-18T16:58:09.458Z,37
2022-11-18T17:04:13.535Z,36.9
2022-11-18T17:09:52.664Z,36.9
2022-11-18T17:15:03.929Z,36.8
2022-11-18T17:20:31.350Z,36.8
2022-11-18T17:26:11.560Z,36.7
2022-11-18T17:31:23.986Z,36.6
2022-11-18T17:36:45.950Z,36.6
2022-11-18T17:42:13.676Z,36.5
2022-11-18T17:47:43.602Z,36.5
2022-11-18T17:53:21.386Z,36.4
2022-11-18T17:59:10.904Z,36.3
2022-11-18T18:04:51.830Z,36.2
2022-11-18T18:10:20.428Z,35.9
2022-11-18T18:15:49.432Z,35.4
2022-11-18T18:21:29.322Z,35.1
2022-11-18T18:27:08.149Z,34.8
2022-11-18T18:32:51.033Z,34.5
2022-11-18T18:38:00.343Z,34.3
2022-11-18T18:43:07.446Z,34
2022-11-18T18:48:50.877Z,33.8
2022-11-18T18:54:30.096Z,33.7
2022-11-18T18:59:59.951Z,33.6
2022-11-18T19:12:23.499Z,33.4
2022-11-18T19:17:48.341Z,33.4
2022-11-18T19:23:12.744Z,33.3
2022-11-18T19:29:24.444Z,33.3
2022-11-18T19:34:50.220Z,33.3
2022-11-18T19:40:30.591Z,33.2
2022-11-18T19:46:10.721Z,33.1
2022-11-18T19:51:54.975Z,33.1
2022-11-18T19:57:41.578Z,33
2022-11-18T20:03:21.563Z,31.9
2022-11-18T20:09:01.731Z,31.1
2022-11-18T20:14:46.522Z,31.4
2022-11-18T20:20:40.794Z,34.4
2022-11-18T20:26:20.504Z,37.3
2022-11-18T20:31:49.657Z,39.1
2022-11-18T20:37:29.891Z,40.6
2022-11-18T20:42:53.899Z,41.4
2022-11-18T20:48:19.523Z,42.3
2022-11-18T20:53:28.649Z,42.9
2022-11-18T20:58:21.276Z,43.6
2022-11-18T21:04:00.309Z,44.2
2022-11-18T21:09:40.209Z,44.9
2022-11-18T21:15:20.511Z,45.3
2022-11-18T21:21:00.177Z,45.4
2022-11-18T21:26:45.859Z,45.6
2022-11-18T21:32:28.943Z,45.6
2022-11-18T21:38:11.677Z,45.7
2022-11-18T21:44:22.926Z,45.7
2022-11-18T21:50:06.836Z,45.7
2022-11-18T21:55:45.183Z,45.7
2022-11-18T22:01:12.495Z,45.7
2022-11-18T22:06:34.176Z,45.6
2022-11-18T22:11:56.975Z,45.6
2022-11-18T22:17:35.067Z,45.6
2022-11-18T22:23:18.919Z,45.6
2022-11-18T22:28:59.275Z,45.5
2022-11-18T22:34:37.720Z,45.4
2022-11-18T22:40:15.817Z,45.4
2022-11-18T22:45:59.491Z,45.4
2022-11-18T22:51:37.589Z,45.3
2022-11-18T22:59:25.932Z,45.3
2022-11-18T23:06:29.571Z,45.2
2022-11-18T23:12:10.138Z,45.1
2022-11-18T23:17:38.619Z,45.1
2022-11-18T23:23:04.244Z,45
2022-11-18T23:28:44.106Z,44.9
2022-11-18T23:34:24.321Z,44.9
2022-11-18T23:40:03.815Z,44.8
2022-11-18T23:45:11.817Z,44.8
2022-11-18T23:50:55.528Z,44.7
2022-11-18T23:56:37.913Z,44.6
